sensor_id;sensor_type;location;lat;lon;timestamp;pressure;altitude;pressure_sealevel;temperature;humidity
9521;BME280;4798;41.574;23.734;2023-05-29T00:00:02;94974.84;;;17.43;100.00
9521;BME280;4798;41.574;23.734;2023-05-29T00:02:32;94980.00;;;17.56;100.00
9521;BME280;4798;41.574;23.734;2023-05-29T00:05:01;94972.81;;;17.31;100.00
9521;BME280;4798;41.574;23.734;2023-05-29T00:07:30;94974.09;;;17.08;100.00
9521;BME280;4798;41.574;23.734;2023-05-29T00:10:00;94971.75;;;17.06;100.00
9521;BME280;4798;41.574;23.734;2023-05-29T00:12:29;94972.22;;;17.17;100.00
9521;BME280;4798;41.574;23.734;2023-05-29T00:14:57;94973.84;;;16.75;100.00
9521;BME280;4798;41.574;23.734;2023-05-29T00:17:26;94962.06;;;16.59;100.00
9521;BME280;4798;41.574;23.734;2023-05-29T00:19:54;94981.22;;;16.95;100.00
9521;BME280;4798;41.574;23.734;2023-05-29T00:22:22;94980.72;;;17.10;100.00
9521;BME280;4798;41.574;23.734;2023-05-29T00:24:51;94993.97;;;17.07;100.00
9521;BME280;4798;41.574;23.734;2023-05-29T00:27:21;94986.88;;;17.11;100.00
9521;BME280;4798;41.574;23.734;2023-05-29T00:29:49;94982.47;;;16.98;100.00
9521;BME280;4798;41.574;23.734;2023-05-29T00:32:17;94987.56;;;16.82;100.00
9521;BME280;4798;41.574;23.734;2023-05-29T00:34:46;94976.19;;;16.94;100.00
9521;BME280;4798;41.574;23.734;2023-05-29T00:37:14;94972.59;;;16.64;100.00
9521;BME280;4798;41.574;23.734;2023-05-29T00:39:42;94969.03;;;16.12;100.00
9521;BME280;4798;41.574;23.734;2023-05-29T00:42:11;94974.78;;;15.80;100.00
9521;BME280;4798;41.574;23.734;2023-05-29T00:44:40;94973.41;;;15.52;100.00
9521;BME280;4798;41.574;23.734;2023-05-29T00:47:09;94966.53;;;15.28;100.00
9521;BME280;4798;41.574;23.734;2023-05-29T00:49:37;94964.03;;;15.32;100.00
9521;BME280;4798;41.574;23.734;2023-05-29T00:52:07;94954.16;;;15.41;100.00
9521;BME280;4798;41.574;23.734;2023-05-29T00:54:37;94953.25;;;15.85;100.00
9521;BME280;4798;41.574;23.734;2023-05-29T00:57:05;94948.56;;;15.99;100.00
9521;BME280;4798;41.574;23.734;2023-05-29T00:59:34;94953.25;;;15.85;100.00
9521;BME280;4798;41.574;23.734;2023-05-29T01:02:04;94959.03;;;16.43;100.00
9521;BME280;4798;41.574;23.734;2023-05-29T01:04:33;94961.25;;;16.76;100.00
9521;BME280;4798;41.574;23.734;2023-05-29T01:07:03;94958.72;;;16.71;100.00
9521;BME280;4798;41.574;23.734;2023-05-29T01:09:31;94965.88;;;15.93;100.00
9521;BME280;4798;41.574;23.734;2023-05-29T01:12:12;94959.72;;;15.93;100.00
9521;BME280;4798;41.574;23.734;2023-05-29T01:14:50;94961.00;;;15.95;100.00
9521;BME280;4798;41.574;23.734;2023-05-29T01:17:28;94963.16;;;15.84;100.00
9521;BME280;4798;41.574;23.734;2023-05-29T01:20:11;94977.72;;;16.18;100.00
9521;BME280;4798;41.574;23.734;2023-05-29T01:22:58;94979.66;;;15.78;100.00
9521;BME280;4798;41.574;23.734;2023-05-29T01:25:46;94981.53;;;15.16;100.00
9521;BME280;4798;41.574;23.734;2023-05-29T01:28:21;94984.16;;;15.60;100.00
9521;BME280;4798;41.574;23.734;2023-05-29T01:30:50;94970.88;;;15.95;100.00
9521;BME280;4798;41.574;23.734;2023-05-29T01:33:19;94978.03;;;16.25;100.00
9521;BME280;4798;41.574;23.734;2023-05-29T01:35:47;94980.88;;;16.28;100.00
9521;BME280;4798;41.574;23.734;2023-05-29T01:38:16;94965.16;;;16.44;100.00
9521;BME280;4798;41.574;23.734;2023-05-29T01:40:44;94959.81;;;16.44;100.00
9521;BME280;4798;41.574;23.734;2023-05-29T01:43:13;94963.31;;;16.62;100.00
9521;BME280;4798;41.574;23.734;2023-05-29T01:45:44;94968.59;;;16.44;100.00
9521;BME280;4798;41.574;23.734;2023-05-29T01:48:12;94964.38;;;15.70;100.00
9521;BME280;4798;41.574;23.734;2023-05-29T01:50:41;94957.56;;;15.24;100.00
9521;BME280;4798;41.574;23.734;2023-05-29T01:53:11;94936.50;;;14.92;100.00
9521;BME280;4798;41.574;23.734;2023-05-29T01:55:58;94954.09;;;15.24;100.00
9521;BME280;4798;41.574;23.734;2023-05-29T01:58:27;94947.53;;;15.30;100.00
9521;BME280;4798;41.574;23.734;2023-05-29T02:00:58;94954.31;;;15.05;100.00
9521;BME280;4798;41.574;23.734;2023-05-29T02:03:27;94953.84;;;14.81;100.00
9521;BME280;4798;41.574;23.734;2023-05-29T02:05:57;94948.38;;;14.86;100.00
9521;BME280;4798;41.574;23.734;2023-05-29T02:08:26;94941.13;;;14.78;100.00
9521;BME280;4798;41.574;23.734;2023-05-29T02:10:54;94920.22;;;14.72;100.00
9521;BME280;4798;41.574;23.734;2023-05-29T02:13:23;94923.53;;;14.77;100.00
9521;BME280;4798;41.574;23.734;2023-05-29T02:15:51;94922.53;;;14.95;100.00
9521;BME280;4798;41.574;23.734;2023-05-29T02:18:21;94915.94;;;15.23;100.00
9521;BME280;4798;41.574;23.734;2023-05-29T02:20:49;94923.38;;;15.44;100.00
9521;BME280;4798;41.574;23.734;2023-05-29T02:23:18;94930.50;;;16.05;100.00
9521;BME280;4798;41.574;23.734;2023-05-29T02:25:47;94947.16;;;15.93;100.00
9521;BME280;4798;41.574;23.734;2023-05-29T02:28:15;94954.84;;;15.86;100.00
9521;BME280;4798;41.574;23.734;2023-05-29T02:30:43;94952.53;;;15.54;100.00
9521;BME280;4798;41.574;23.734;2023-05-29T02:33:12;94960.78;;;15.74;100.00
9521;BME280;4798;41.574;23.734;2023-05-29T02:35:41;94954.78;;;15.69;100.00
9521;BME280;4798;41.574;23.734;2023-05-29T02:38:09;94965.38;;;15.21;100.00
9521;BME280;4798;41.574;23.734;2023-05-29T02:40:38;94959.44;;;15.24;100.00
9521;BME280;4798;41.574;23.734;2023-05-29T02:43:07;94960.06;;;15.52;100.00
9521;BME280;4798;41.574;23.734;2023-05-29T02:45:36;94962.59;;;15.57;100.00
9521;BME280;4798;41.574;23.734;2023-05-29T02:48:05;94968.97;;;15.78;100.00
9521;BME280;4798;41.574;23.734;2023-05-29T02:50:33;94955.16;;;15.84;100.00
9521;BME280;4798;41.574;23.734;2023-05-29T02:53:03;94968.97;;;15.78;100.00
9521;BME280;4798;41.574;23.734;2023-05-29T02:55:31;94967.44;;;15.94;100.00
9521;BME280;4798;41.574;23.734;2023-05-29T02:58:02;94963.25;;;15.32;100.00
9521;BME280;4798;41.574;23.734;2023-05-29T03:00:31;94967.94;;;15.57;100.00
9521;BME280;4798;41.574;23.734;2023-05-29T03:02:59;94966.97;;;15.92;100.00
9521;BME280;4798;41.574;23.734;2023-05-29T03:05:28;94968.41;;;16.15;100.00
9521;BME280;4798;41.574;23.734;2023-05-29T03:07:56;94969.22;;;16.24;100.00
9521;BME280;4798;41.574;23.734;2023-05-29T03:10:26;94972.81;;;16.20;100.00
9521;BME280;4798;41.574;23.734;2023-05-29T03:12:54;94976.94;;;16.34;100.00
9521;BME280;4798;41.574;23.734;2023-05-29T03:15:22;94979.28;;;16.27;100.00
9521;BME280;4798;41.574;23.734;2023-05-29T03:17:51;94980.72;;;16.33;100.00
9521;BME280;4798;41.574;23.734;2023-05-29T03:20:19;94985.31;;;16.41;100.00
9521;BME280;4798;41.574;23.734;2023-05-29T03:22:47;94985.00;;;16.51;100.00
9521;BME280;4798;41.574;23.734;2023-05-29T03:25:16;94987.53;;;16.65;100.00
9521;BME280;4798;41.574;23.734;2023-05-29T03:27:46;94987.53;;;16.57;100.00
9521;BME280;4798;41.574;23.734;2023-05-29T03:30:14;94991.63;;;16.71;100.00
9521;BME280;4798;41.574;23.734;2023-05-29T03:32:42;94993.34;;;16.76;100.00
9521;BME280;4798;41.574;23.734;2023-05-29T03:35:11;94999.69;;;16.80;100.00
9521;BME280;4798;41.574;23.734;2023-05-29T03:37:39;95001.56;;;16.79;100.00
9521;BME280;4798;41.574;23.734;2023-05-29T03:40:08;95009.72;;;16.83;100.00
9521;BME280;4798;41.574;23.734;2023-05-29T03:42:37;95011.63;;;16.74;100.00
9521;BME280;4798;41.574;23.734;2023-05-29T03:45:08;95017.78;;;16.74;100.00
9521;BME280;4798;41.574;23.734;2023-05-29T03:47:36;95020.16;;;16.11;100.00
9521;BME280;4798;41.574;23.734;2023-05-29T03:50:05;95022.22;;;15.74;100.00
9521;BME280;4798;41.574;23.734;2023-05-29T03:52:34;95028.28;;;15.97;100.00
9521;BME280;4798;41.574;23.734;2023-05-29T03:55:03;95032.25;;;16.08;100.00
9521;BME280;4798;41.574;23.734;2023-05-29T03:57:31;95024.59;;;16.24;100.00
9521;BME280;4798;41.574;23.734;2023-05-29T03:59:59;95024.66;;;15.93;100.00
9521;BME280;4798;41.574;23.734;2023-05-29T04:02:29;95020.75;;;15.99;100.00
9521;BME280;4798;41.574;23.734;2023-05-29T04:04:57;95025.22;;;16.21;100.00
9521;BME280;4798;41.574;23.734;2023-05-29T04:07:26;95012.34;;;16.31;100.00
9521;BME280;4798;41.574;23.734;2023-05-29T04:09:54;95023.50;;;16.16;100.00
9521;BME280;4798;41.574;23.734;2023-05-29T04:12:22;95021.53;;;16.00;100.00
9521;BME280;4798;41.574;23.734;2023-05-29T04:14:50;95033.34;;;16.07;100.00
9521;BME280;4798;41.574;23.734;2023-05-29T04:17:19;95030.44;;;16.34;100.00
9521;BME280;4798;41.574;23.734;2023-05-29T04:19:49;95030.25;;;16.14;100.00
9521;BME280;4798;41.574;23.734;2023-05-29T04:22:17;95041.28;;;16.38;100.00
9521;BME280;4798;41.574;23.734;2023-05-29T04:24:46;95030.50;;;16.69;100.00
9521;BME280;4798;41.574;23.734;2023-05-29T04:27:14;95034.75;;;16.70;100.00
9521;BME280;4798;41.574;23.734;2023-05-29T04:29:43;95037.28;;;16.66;100.00
9521;BME280;4798;41.574;23.734;2023-05-29T04:32:11;95036.19;;;16.76;100.00
9521;BME280;4798;41.574;23.734;2023-05-29T04:34:40;95034.63;;;16.92;100.00
9521;BME280;4798;41.574;23.734;2023-05-29T04:37:12;95034.59;;;17.09;100.00
9521;BME280;4798;41.574;23.734;2023-05-29T04:39:41;95024.22;;;17.07;100.00
9521;BME280;4798;41.574;23.734;2023-05-29T04:42:09;95029.09;;;16.97;100.00
9521;BME280;4798;41.574;23.734;2023-05-29T04:44:37;95037.59;;;16.99;100.00
9521;BME280;4798;41.574;23.734;2023-05-29T04:47:06;95032.25;;;16.82;100.00
9521;BME280;4798;41.574;23.734;2023-05-29T04:49:34;95033.34;;;16.64;100.00
9521;BME280;4798;41.574;23.734;2023-05-29T04:52:05;95023.72;;;16.63;100.00
9521;BME280;4798;41.574;23.734;2023-05-29T04:54:35;95036.63;;;16.61;100.00
9521;BME280;4798;41.574;23.734;2023-05-29T04:57:04;95038.88;;;16.84;100.00
9521;BME280;4798;41.574;23.734;2023-05-29T04:59:32;95045.16;;;16.88;100.00
9521;BME280;4798;41.574;23.734;2023-05-29T05:02:01;95046.03;;;16.41;100.00
9521;BME280;4798;41.574;23.734;2023-05-29T05:04:30;95054.09;;;16.02;100.00
9521;BME280;4798;41.574;23.734;2023-05-29T05:06:59;95052.81;;;15.91;100.00
9521;BME280;4798;41.574;23.734;2023-05-29T05:09:27;95061.66;;;15.69;100.00
9521;BME280;4798;41.574;23.734;2023-05-29T05:11:57;95060.75;;;16.13;100.00
9521;BME280;4798;41.574;23.734;2023-05-29T05:14:25;95060.00;;;16.29;100.00
9521;BME280;4798;41.574;23.734;2023-05-29T05:16:56;94966.88;;;15.36;100.00
9521;BME280;4798;41.574;23.734;2023-05-29T05:19:24;95068.38;;;16.36;100.00
9521;BME280;4798;41.574;23.734;2023-05-29T05:21:53;95070.34;;;16.79;100.00
9521;BME280;4798;41.574;23.734;2023-05-29T05:24:21;95067.19;;;17.11;100.00
9521;BME280;4798;41.574;23.734;2023-05-29T05:26:49;95063.44;;;17.12;100.00
9521;BME280;4798;41.574;23.734;2023-05-29T05:29:19;95069.69;;;17.42;100.00
9521;BME280;4798;41.574;23.734;2023-05-29T05:31:47;95059.59;;;17.47;100.00
9521;BME280;4798;41.574;23.734;2023-05-29T05:34:16;95054.88;;;17.61;100.00
9521;BME280;4798;41.574;23.734;2023-05-29T05:36:44;95051.91;;;17.54;100.00
9521;BME280;4798;41.574;23.734;2023-05-29T05:39:13;95058.47;;;17.74;100.00
9521;BME280;4798;41.574;23.734;2023-05-29T05:41:41;95062.28;;;18.11;100.00
9521;BME280;4798;41.574;23.734;2023-05-29T05:44:09;95068.34;;;17.91;100.00
9521;BME280;4798;41.574;23.734;2023-05-29T05:46:39;95066.56;;;18.03;100.00
9521;BME280;4798;41.574;23.734;2023-05-29T05:49:07;95070.00;;;18.04;100.00
9521;BME280;4798;41.574;23.734;2023-05-29T05:51:35;95077.66;;;18.31;100.00
9521;BME280;4798;41.574;23.734;2023-05-29T05:54:04;95071.22;;;18.23;100.00
9521;BME280;4798;41.574;23.734;2023-05-29T05:56:32;95067.50;;;17.99;100.00
9521;BME280;4798;41.574;23.734;2023-05-29T05:59:00;95071.25;;;18.15;100.00
9521;BME280;4798;41.574;23.734;2023-05-29T06:01:29;95078.84;;;18.13;100.00
9521;BME280;4798;41.574;23.734;2023-05-29T06:03:59;95064.66;;;18.42;100.00
9521;BME280;4798;41.574;23.734;2023-05-29T06:06:28;95066.06;;;18.48;100.00
9521;BME280;4798;41.574;23.734;2023-05-29T06:08:58;95062.22;;;18.57;100.00
9521;BME280;4798;41.574;23.734;2023-05-29T06:11:26;95075.63;;;18.57;100.00
9521;BME280;4798;41.574;23.734;2023-05-29T06:13:55;95077.28;;;18.70;100.00
9521;BME280;4798;41.574;23.734;2023-05-29T06:16:23;95077.66;;;18.60;100.00
9521;BME280;4798;41.574;23.734;2023-05-29T06:18:51;95068.75;;;18.48;100.00
9521;BME280;4798;41.574;23.734;2023-05-29T06:21:21;95081.22;;;18.73;100.00
9521;BME280;4798;41.574;23.734;2023-05-29T06:23:50;95070.38;;;18.69;100.00
9521;BME280;4798;41.574;23.734;2023-05-29T06:26:18;95092.53;;;18.20;100.00
9521;BME280;4798;41.574;23.734;2023-05-29T06:28:46;95096.44;;;17.85;100.00
9521;BME280;4798;41.574;23.734;2023-05-29T06:31:15;95085.00;;;18.05;100.00
9521;BME280;4798;41.574;23.734;2023-05-29T06:33:43;95095.81;;;18.25;100.00
9521;BME280;4798;41.574;23.734;2023-05-29T06:36:12;95094.28;;;18.16;100.00
9521;BME280;4798;41.574;23.734;2023-05-29T06:38:45;95086.00;;;18.29;100.00
9521;BME280;4798;41.574;23.734;2023-05-29T06:41:14;95098.84;;;18.24;100.00
9521;BME280;4798;41.574;23.734;2023-05-29T06:43:43;95104.47;;;17.85;100.00
9521;BME280;4798;41.574;23.734;2023-05-29T06:46:11;95110.66;;;17.76;100.00
9521;BME280;4798;41.574;23.734;2023-05-29T06:48:39;95107.84;;;17.73;100.00
9521;BME280;4798;41.574;23.734;2023-05-29T06:51:08;95102.97;;;17.32;100.00
9521;BME280;4798;41.574;23.734;2023-05-29T06:53:39;95102.44;;;17.82;100.00
9521;BME280;4798;41.574;23.734;2023-05-29T06:56:09;95090.47;;;18.17;100.00
9521;BME280;4798;41.574;23.734;2023-05-29T06:58:37;95090.56;;;18.37;100.00
9521;BME280;4798;41.574;23.734;2023-05-29T07:01:06;95080.16;;;18.65;100.00
9521;BME280;4798;41.574;23.734;2023-05-29T07:03:35;95087.91;;;19.08;100.00
9521;BME280;4798;41.574;23.734;2023-05-29T07:06:04;95083.59;;;18.95;100.00
9521;BME280;4798;41.574;23.734;2023-05-29T07:08:33;95076.78;;;19.39;100.00
9521;BME280;4798;41.574;23.734;2023-05-29T07:11:02;95075.78;;;19.76;100.00
9521;BME280;4798;41.574;23.734;2023-05-29T07:13:31;95073.25;;;19.92;99.04
9521;BME280;4798;41.574;23.734;2023-05-29T07:16:00;95081.97;;;20.58;97.02
9521;BME280;4798;41.574;23.734;2023-05-29T07:18:39;95059.16;;;20.67;93.63
9521;BME280;4798;41.574;23.734;2023-05-29T07:21:09;95077.69;;;20.69;91.87
9521;BME280;4798;41.574;23.734;2023-05-29T07:23:39;95072.22;;;20.53;94.68
9521;BME280;4798;41.574;23.734;2023-05-29T07:26:07;95075.28;;;20.19;97.17
9521;BME280;4798;41.574;23.734;2023-05-29T07:28:37;95073.84;;;21.06;95.83
9521;BME280;4798;41.574;23.734;2023-05-29T07:31:05;95081.91;;;21.46;89.67
9521;BME280;4798;41.574;23.734;2023-05-29T07:33:34;95070.03;;;21.78;90.22
9521;BME280;4798;41.574;23.734;2023-05-29T07:36:02;95066.81;;;21.29;92.43
9521;BME280;4798;41.574;23.734;2023-05-29T07:38:30;95066.13;;;21.20;93.00
9521;BME280;4798;41.574;23.734;2023-05-29T07:40:59;95075.94;;;21.13;92.00
9521;BME280;4798;41.574;23.734;2023-05-29T07:43:27;95074.03;;;21.13;91.93
9521;BME280;4798;41.574;23.734;2023-05-29T07:45:57;95076.63;;;21.49;92.79
9521;BME280;4798;41.574;23.734;2023-05-29T07:48:25;95078.84;;;21.20;95.87
9521;BME280;4798;41.574;23.734;2023-05-29T07:50:53;95079.94;;;20.55;98.73
9521;BME280;4798;41.574;23.734;2023-05-29T07:53:22;95083.31;;;20.64;100.00
9521;BME280;4798;41.574;23.734;2023-05-29T07:55:50;95082.06;;;20.49;100.00
9521;BME280;4798;41.574;23.734;2023-05-29T07:58:19;95067.34;;;20.83;100.00
9521;BME280;4798;41.574;23.734;2023-05-29T08:00:48;95080.88;;;21.11;95.96
9521;BME280;4798;41.574;23.734;2023-05-29T08:03:18;95068.78;;;20.92;95.58
9521;BME280;4798;41.574;23.734;2023-05-29T08:05:46;95072.25;;;21.17;95.77
9521;BME280;4798;41.574;23.734;2023-05-29T08:08:15;95074.00;;;21.25;95.67
9521;BME280;4798;41.574;23.734;2023-05-29T08:10:43;95079.25;;;20.82;97.31
9521;BME280;4798;41.574;23.734;2023-05-29T08:13:12;95073.78;;;21.18;99.10
9521;BME280;4798;41.574;23.734;2023-05-29T08:15:40;95080.22;;;21.14;98.08
9521;BME280;4798;41.574;23.734;2023-05-29T08:18:08;95075.63;;;21.14;98.28
9521;BME280;4798;41.574;23.734;2023-05-29T08:20:38;95065.53;;;22.26;92.35
9521;BME280;4798;41.574;23.734;2023-05-29T08:23:07;95066.72;;;22.12;87.19
9521;BME280;4798;41.574;23.734;2023-05-29T08:25:35;95067.31;;;22.53;82.62
9521;BME280;4798;41.574;23.734;2023-05-29T08:28:03;95070.81;;;22.53;74.79
9521;BME280;4798;41.574;23.734;2023-05-29T08:30:32;95060.00;;;23.23;70.65
9521;BME280;4798;41.574;23.734;2023-05-29T08:33:00;95069.31;;;23.41;67.45
9521;BME280;4798;41.574;23.734;2023-05-29T08:35:28;95060.16;;;23.68;67.99
9521;BME280;4798;41.574;23.734;2023-05-29T08:37:58;95068.69;;;23.13;65.73
9521;BME280;4798;41.574;23.734;2023-05-29T08:40:26;95066.69;;;23.10;65.06
9521;BME280;4798;41.574;23.734;2023-05-29T08:42:57;95061.94;;;23.03;63.32
9521;BME280;4798;41.574;23.734;2023-05-29T08:45:28;95065.06;;;23.40;64.65
9521;BME280;4798;41.574;23.734;2023-05-29T08:47:58;95067.25;;;23.00;62.12
9521;BME280;4798;41.574;23.734;2023-05-29T08:50:28;95068.06;;;22.85;64.04
9521;BME280;4798;41.574;23.734;2023-05-29T08:52:58;95061.44;;;23.17;64.20
9521;BME280;4798;41.574;23.734;2023-05-29T08:55:27;94963.25;;;22.74;62.65
9521;BME280;4798;41.574;23.734;2023-05-29T08:57:55;95051.16;;;23.83;63.16
9521;BME280;4798;41.574;23.734;2023-05-29T09:00:24;95050.38;;;23.60;61.60
9521;BME280;4798;41.574;23.734;2023-05-29T09:02:55;95051.72;;;23.92;61.65
9521;BME280;4798;41.574;23.734;2023-05-29T09:05:26;95058.91;;;24.27;60.54
9521;BME280;4798;41.574;23.734;2023-05-29T09:07:55;95053.31;;;24.16;58.86
9521;BME280;4798;41.574;23.734;2023-05-29T09:10:26;95060.50;;;24.28;59.15
9521;BME280;4798;41.574;23.734;2023-05-29T09:12:54;95057.06;;;25.06;57.78
9521;BME280;4798;41.574;23.734;2023-05-29T09:15:23;95061.28;;;26.00;59.81
9521;BME280;4798;41.574;23.734;2023-05-29T09:17:52;95053.44;;;25.91;57.30
9521;BME280;4798;41.574;23.734;2023-05-29T09:20:21;95055.09;;;25.66;56.59
9521;BME280;4798;41.574;23.734;2023-05-29T09:22:55;95054.88;;;25.81;56.26
9521;BME280;4798;41.574;23.734;2023-05-29T09:25:27;95041.06;;;25.27;56.30
9521;BME280;4798;41.574;23.734;2023-05-29T09:27:59;95058.63;;;25.37;57.11
9521;BME280;4798;41.574;23.734;2023-05-29T09:30:38;95048.00;;;24.72;57.22
9521;BME280;4798;41.574;23.734;2023-05-29T09:33:09;95047.66;;;23.60;58.21
9521;BME280;4798;41.574;23.734;2023-05-29T09:35:40;95053.31;;;24.16;58.07
9521;BME280;4798;41.574;23.734;2023-05-29T09:38:10;95052.66;;;24.45;58.01
9521;BME280;4798;41.574;23.734;2023-05-29T09:41:03;95051.34;;;23.14;59.57
9521;BME280;4798;41.574;23.734;2023-05-29T09:43:32;95052.06;;;23.49;60.25
9521;BME280;4798;41.574;23.734;2023-05-29T09:46:01;95044.38;;;23.70;59.34
9521;BME280;4798;41.574;23.734;2023-05-29T09:48:30;95049.59;;;23.60;65.29
9521;BME280;4798;41.574;23.734;2023-05-29T09:51:02;95034.47;;;23.59;69.02
9521;BME280;4798;41.574;23.734;2023-05-29T09:53:30;95030.13;;;23.96;68.09
9521;BME280;4798;41.574;23.734;2023-05-29T09:56:01;95041.28;;;24.14;67.38
9521;BME280;4798;41.574;23.734;2023-05-29T09:58:32;95025.03;;;24.62;64.17
9521;BME280;4798;41.574;23.734;2023-05-29T10:01:02;95030.84;;;24.61;58.28
9521;BME280;4798;41.574;23.734;2023-05-29T10:03:30;95026.78;;;24.74;61.10
9521;BME280;4798;41.574;23.734;2023-05-29T10:06:02;95028.03;;;25.40;59.51
9521;BME280;4798;41.574;23.734;2023-05-29T10:08:35;95026.63;;;25.49;56.12
9521;BME280;4798;41.574;23.734;2023-05-29T10:11:07;95025.41;;;25.80;55.10
9521;BME280;4798;41.574;23.734;2023-05-29T10:13:42;95021.84;;;25.09;57.39
9521;BME280;4798;41.574;23.734;2023-05-29T10:16:16;95031.81;;;25.32;56.80
9521;BME280;4798;41.574;23.734;2023-05-29T10:18:50;95031.22;;;25.15;55.78
9521;BME280;4798;41.574;23.734;2023-05-29T10:21:21;95032.03;;;24.15;58.33
9521;BME280;4798;41.574;23.734;2023-05-29T10:23:50;95028.59;;;23.76;58.12
9521;BME280;4798;41.574;23.734;2023-05-29T10:26:22;95023.91;;;24.15;59.88
9521;BME280;4798;41.574;23.734;2023-05-29T10:29:02;95024.56;;;25.09;58.52
9521;BME280;4798;41.574;23.734;2023-05-29T10:31:37;95018.91;;;25.21;57.72
9521;BME280;4798;41.574;23.734;2023-05-29T10:34:15;95008.94;;;24.73;55.78
9521;BME280;4798;41.574;23.734;2023-05-29T10:36:54;95018.53;;;24.93;57.04
9521;BME280;4798;41.574;23.734;2023-05-29T10:39:24;95014.84;;;25.08;55.12
9521;BME280;4798;41.574;23.734;2023-05-29T10:41:53;95011.59;;;25.99;54.89
9521;BME280;4798;41.574;23.734;2023-05-29T10:44:40;95011.28;;;27.09;51.57
9521;BME280;4798;41.574;23.734;2023-05-29T10:47:08;95007.16;;;26.72;49.94
9521;BME280;4798;41.574;23.734;2023-05-29T10:49:39;94997.50;;;27.60;50.01
9521;BME280;4798;41.574;23.734;2023-05-29T10:52:18;94998.25;;;27.54;47.61
9521;BME280;4798;41.574;23.734;2023-05-29T10:54:53;94960.50;;;26.63;48.07
9521;BME280;4798;41.574;23.734;2023-05-29T10:57:23;94985.97;;;27.02;47.52
9521;BME280;4798;41.574;23.734;2023-05-29T11:00:03;94977.38;;;26.93;47.45
9521;BME280;4798;41.574;23.734;2023-05-29T11:02:37;94925.34;;;26.29;47.18
9521;BME280;4798;41.574;23.734;2023-05-29T11:05:18;94965.81;;;26.45;48.83
9521;BME280;4798;41.574;23.734;2023-05-29T11:07:56;94968.81;;;25.12;49.63
9521;BME280;4798;41.574;23.734;2023-05-29T11:10:45;94962.91;;;24.77;50.48
9521;BME280;4798;41.574;23.734;2023-05-29T11:13:26;94966.81;;;25.09;51.09
9521;BME280;4798;41.574;23.734;2023-05-29T11:16:05;94960.03;;;24.92;51.83
9521;BME280;4798;41.574;23.734;2023-05-29T11:18:42;94919.56;;;24.50;51.40
9521;BME280;4798;41.574;23.734;2023-05-29T11:21:30;94946.53;;;24.96;54.00
9521;BME280;4798;41.574;23.734;2023-05-29T11:24:01;94944.50;;;24.89;51.28
9521;BME280;4798;41.574;23.734;2023-05-29T11:26:36;94939.59;;;24.72;52.72
9521;BME280;4798;41.574;23.734;2023-05-29T11:29:06;94943.75;;;24.92;53.01
9521;BME280;4798;41.574;23.734;2023-05-29T11:31:39;94927.41;;;25.55;51.45
9521;BME280;4798;41.574;23.734;2023-05-29T11:34:12;94924.06;;;26.16;47.73
9521;BME280;4798;41.574;23.734;2023-05-29T11:36:42;94939.59;;;25.72;48.41
9521;BME280;4798;41.574;23.734;2023-05-29T11:39:11;94928.50;;;25.88;48.35
9521;BME280;4798;41.574;23.734;2023-05-29T11:41:39;94926.72;;;26.64;49.15
9521;BME280;4798;41.574;23.734;2023-05-29T11:44:13;94748.72;;;26.22;45.99
9521;BME280;4798;41.574;23.734;2023-05-29T11:46:42;94918.94;;;28.44;43.04
9521;BME280;4798;41.574;23.734;2023-05-29T11:49:10;94922.81;;;28.53;43.43
9521;BME280;4798;41.574;23.734;2023-05-29T11:51:41;94915.66;;;29.05;43.29
9521;BME280;4798;41.574;23.734;2023-05-29T11:54:12;94920.53;;;28.09;43.63
9521;BME280;4798;41.574;23.734;2023-05-29T11:56:40;94926.69;;;27.60;43.77
9521;BME280;4798;41.574;23.734;2023-05-29T11:59:11;94918.81;;;27.20;43.48
9521;BME280;4798;41.574;23.734;2023-05-29T12:01:39;94914.44;;;26.91;43.10
9521;BME280;4798;41.574;23.734;2023-05-29T12:04:14;94917.13;;;26.84;45.47
9521;BME280;4798;41.574;23.734;2023-05-29T12:06:43;94893.16;;;27.14;45.18
9521;BME280;4798;41.574;23.734;2023-05-29T12:09:23;94904.41;;;27.13;44.96
9521;BME280;4798;41.574;23.734;2023-05-29T12:11:54;94904.34;;;27.02;42.42
9521;BME280;4798;41.574;23.734;2023-05-29T12:14:23;94894.44;;;28.33;42.04
9521;BME280;4798;41.574;23.734;2023-05-29T12:16:52;94880.47;;;28.03;40.81
9521;BME280;4798;41.574;23.734;2023-05-29T12:19:20;94883.53;;;28.19;43.03
9521;BME280;4798;41.574;23.734;2023-05-29T12:21:49;94831.41;;;27.78;42.97
9521;BME280;4798;41.574;23.734;2023-05-29T12:24:18;94885.00;;;28.73;43.25
9521;BME280;4798;41.574;23.734;2023-05-29T12:26:52;94876.41;;;29.54;39.66
9521;BME280;4798;41.574;23.734;2023-05-29T12:29:31;94873.84;;;30.36;40.07
9521;BME280;4798;41.574;23.734;2023-05-29T12:32:01;94865.03;;;30.89;37.92
9521;BME280;4798;41.574;23.734;2023-05-29T12:34:34;94865.88;;;30.07;38.15
9521;BME280;4798;41.574;23.734;2023-05-29T12:37:06;94849.69;;;31.25;36.93
9521;BME280;4798;41.574;23.734;2023-05-29T12:39:39;94855.84;;;31.06;38.11
9521;BME280;4798;41.574;23.734;2023-05-29T12:42:08;94854.81;;;31.23;35.94
9521;BME280;4798;41.574;23.734;2023-05-29T12:44:38;94839.69;;;31.41;36.53
9521;BME280;4798;41.574;23.734;2023-05-29T12:47:07;94848.72;;;31.12;37.06
9521;BME280;4798;41.574;23.734;2023-05-29T12:49:36;94863.84;;;29.02;39.37
9521;BME280;4798;41.574;23.734;2023-05-29T12:52:05;94850.94;;;29.09;40.01
9521;BME280;4798;41.574;23.734;2023-05-29T12:54:36;94845.28;;;28.58;39.29
9521;BME280;4798;41.574;23.734;2023-05-29T12:57:06;94851.53;;;28.58;39.89
9521;BME280;4798;41.574;23.734;2023-05-29T12:59:34;94858.16;;;27.16;41.72
9521;BME280;4798;41.574;23.734;2023-05-29T13:02:05;94814.19;;;26.03;48.06
9521;BME280;4798;41.574;23.734;2023-05-29T13:04:35;94855.66;;;26.00;50.04
9521;BME280;4798;41.574;23.734;2023-05-29T13:07:04;94862.16;;;25.88;50.72
9521;BME280;4798;41.574;23.734;2023-05-29T13:09:32;94856.72;;;25.41;51.27
9521;BME280;4798;41.574;23.734;2023-05-29T13:12:00;94851.75;;;25.47;52.14
9521;BME280;4798;41.574;23.734;2023-05-29T13:14:29;94858.38;;;25.53;52.47
9521;BME280;4798;41.574;23.734;2023-05-29T13:16:57;94866.63;;;24.86;56.07
9521;BME280;4798;41.574;23.734;2023-05-29T13:19:27;94875.97;;;24.07;60.03